Accueil
METAR-TAF:

METAR-TAF

Aéroports :

Aéroport de Dijon-Bourgogne

Dijon, France

latitude: 47-16N, longitude: 005-05E, altitude: 222 m

Observation

Le bulletin a été fait il y a 22 minutes, à 20:30 UTC
Vent 4 kt de sud-est
Température 0°C
Humidité 93%
Pression 1017 hPa
Visibilité: 3200 m
neige faible, brume

METAR: LFSD 152030Z AUTO 14004KT 3200 -SN BR FEW025/// SCT033/// OVC042/// ///TCU M00/M01 Q1017

Heure: 21:52 (20:52 UTC)


TAF: absent

Observations et prévisions météorologiques de plus de 4000 aéroports (messages METAR et TAF).

Les stations disponibles sont représentées par des disques jaunes et rouges sur la carte.

Passer la souris dessus pour voir le nom de la station.

Cliquer dessus pour voir les observations et prévisions météorologiques.

Pour changer de carte: cliquez sur les boutons verts avec une croix noire pour zoomer, sur le bouton vert avec un tiret pour effectuer un zoom arrière, ou sur les flèches vertes pour les cartes adjacentes.


METAR-TAF: